createdAt,value
2018-12-18T00:00:34.066Z,17.15
2018-12-18T00:02:08.180Z,15.65
2018-12-18T00:03:39.434Z,15.13
2018-12-18T00:07:29.983Z,16.60
2018-12-18T00:09:00.671Z,13.58
2018-12-18T00:10:36.628Z,13.98
2018-12-18T00:12:06.706Z,12.43
2018-12-18T00:13:36.971Z,13.65
2018-12-18T00:15:07.324Z,12.85
2018-12-18T00:16:37.647Z,12.25
2018-12-18T00:18:08.354Z,10.68
2018-12-18T00:19:39.131Z,11.55
2018-12-18T00:21:09.160Z,15.63
2018-12-18T00:22:39.281Z,14.05
2018-12-18T00:24:09.774Z,12.65
2018-12-18T00:25:42.062Z,11.90
2018-12-18T00:27:12.385Z,10.45
2018-12-18T00:28:42.597Z,11.25
2018-12-18T00:30:12.849Z,11.40
2018-12-18T00:31:43.739Z,12.13
2018-12-18T00:33:14.066Z,19.50
2018-12-18T00:34:44.327Z,12.03
2018-12-18T00:36:22.788Z,11.80
2018-12-18T00:37:52.893Z,13.05
2018-12-18T00:39:22.984Z,13.70
2018-12-18T00:40:53.184Z,12.43
2018-12-18T00:42:25.203Z,11.48
2018-12-18T00:43:55.500Z,12.68
2018-12-18T00:45:25.614Z,11.05
2018-12-18T00:46:55.571Z,10.20
2018-12-18T00:48:25.706Z,10.40
2018-12-18T00:49:55.805Z,11.00
2018-12-18T00:51:25.854Z,33.38
2018-12-18T00:52:55.955Z,12.40
2018-12-18T00:54:26.078Z,13.30
2018-12-18T00:55:56.144Z,11.88
2018-12-18T00:57:26.446Z,11.05
2018-12-18T00:58:56.782Z,11.10
2018-12-18T01:00:27.383Z,9.08
2018-12-18T01:01:59.378Z,10.10
2018-12-18T01:03:31.775Z,7.87
2018-12-18T01:05:02.907Z,10.30
2018-12-18T01:06:34.062Z,10.18
2018-12-18T01:08:04.865Z,10.45
2018-12-18T01:09:37.016Z,8.80
2018-12-18T01:11:07.448Z,8.83
2018-12-18T01:12:41.683Z,9.40
2018-12-18T01:14:12.718Z,9.03
2018-12-18T01:15:44.963Z,16.10
2018-12-18T01:17:17.278Z,21.82
2018-12-18T01:18:49.435Z,15.53
2018-12-18T01:20:20.289Z,17.02
2018-12-18T01:21:52.820Z,13.18
2018-12-18T01:23:25.244Z,10.30
2018-12-18T01:24:59.130Z,11.85
2018-12-18T01:26:31.686Z,10.68
2018-12-18T01:28:03.958Z,10.05
2018-12-18T01:29:34.765Z,10.03
2018-12-18T01:31:05.322Z,9.68
2018-12-18T01:32:37.380Z,10.60
2018-12-18T01:34:07.862Z,10.45
2018-12-18T01:35:40.198Z,11.80
2018-12-18T01:37:10.583Z,10.38
2018-12-18T01:38:41.154Z,10.75
2018-12-18T01:40:13.154Z,11.00
2018-12-18T01:41:43.658Z,11.12
2018-12-18T01:43:15.902Z,9.18
2018-12-18T01:44:48.384Z,10.00
2018-12-18T01:46:18.594Z,10.75
2018-12-18T01:47:49.071Z,11.88
2018-12-18T01:49:21.368Z,10.78
2018-12-18T01:50:51.581Z,9.73
2018-12-18T01:52:21.803Z,11.48
2018-12-18T01:53:54.189Z,12.25
2018-12-18T01:55:24.559Z,13.05
2018-12-18T01:56:54.771Z,11.05
2018-12-18T01:58:24.900Z,11.57
2018-12-18T01:59:55.206Z,12.68
2018-12-18T02:01:25.402Z,10.90
2018-12-18T02:02:55.558Z,11.20
2018-12-18T02:04:25.786Z,11.12
2018-12-18T02:05:56.159Z,10.45
2018-12-18T02:07:26.163Z,9.95
2018-12-18T02:08:56.349Z,9.83
2018-12-18T02:10:26.698Z,10.10
2018-12-18T02:11:56.931Z,10.23
2018-12-18T02:13:28.944Z,11.08
2018-12-18T02:14:59.039Z,9.75
2018-12-18T02:16:29.197Z,9.30
2018-12-18T02:17:59.176Z,9.90
2018-12-18T02:19:31.480Z,10.48
2018-12-18T02:21:01.713Z,9.53
2018-12-18T02:22:32.005Z,10.18
2018-12-18T02:24:04.198Z,9.13
2018-12-18T02:25:35.027Z,11.22
2018-12-18T02:27:07.632Z,9.00
2018-12-18T02:28:39.655Z,10.28
2018-12-18T02:30:11.959Z,8.85
2018-12-18T02:31:44.715Z,9.18
2018-12-18T02:33:19.689Z,10.40
2018-12-18T02:34:54.029Z,11.50
2018-12-18T02:36:28.773Z,10.10
2018-12-18T02:38:01.640Z,10.45
2018-12-18T02:39:34.489Z,8.88
2018-12-18T02:41:08.428Z,9.88
2018-12-18T02:42:41.561Z,10.32
2018-12-18T02:44:12.723Z,10.43
2018-12-18T02:45:44.920Z,10.35
2018-12-18T02:47:17.157Z,9.90
2018-12-18T02:48:49.245Z,9.83
2018-12-18T02:50:21.695Z,9.75
2018-12-18T02:51:53.392Z,8.98
2018-12-18T02:53:24.192Z,9.53
2018-12-18T02:54:54.852Z,9.00
2018-12-18T02:56:26.924Z,9.15
2018-12-18T02:58:01.571Z,10.25
2018-12-18T02:59:35.553Z,10.78
2018-12-18T03:01:06.696Z,9.68
2018-12-18T03:02:38.733Z,10.38
2018-12-18T03:04:11.195Z,10.50
2018-12-18T03:05:44.478Z,10.23
2018-12-18T03:07:15.996Z,10.23
2018-12-18T03:08:48.301Z,9.48
2018-12-18T03:10:21.027Z,9.90
2018-12-18T03:11:53.380Z,10.98
2018-12-18T03:13:24.254Z,10.10
2018-12-18T03:14:56.675Z,10.23
2018-12-18T03:16:32.835Z,10.48
2018-12-18T03:18:03.711Z,10.72
2018-12-18T03:19:38.210Z,10.00
2018-12-18T03:21:10.868Z,9.65
2018-12-18T03:22:45.920Z,9.08
2018-12-18T03:24:18.235Z,7.97
2018-12-18T03:25:51.708Z,9.10
2018-12-18T03:27:22.615Z,9.03
2018-12-18T03:28:53.500Z,9.93
2018-12-18T03:30:26.095Z,9.78
2018-12-18T03:32:04.737Z,9.38
2018-12-18T03:33:37.007Z,9.70
2018-12-18T03:35:14.263Z,9.48
2018-12-18T03:36:46.829Z,10.50
2018-12-18T03:38:17.724Z,9.88
2018-12-18T03:39:51.944Z,9.88
2018-12-18T03:41:26.614Z,9.55
2018-12-18T03:43:02.029Z,10.58
2018-12-18T03:44:36.883Z,9.23
2018-12-18T03:46:11.678Z,10.05
2018-12-18T03:47:43.300Z,9.13
2018-12-18T03:49:15.776Z,9.15
2018-12-18T03:50:49.085Z,8.78
2018-12-18T03:52:19.711Z,9.60
2018-12-18T03:53:54.444Z,9.13
2018-12-18T03:55:29.087Z,8.30
2018-12-18T03:56:59.848Z,8.45
2018-12-18T03:58:33.916Z,9.85
2018-12-18T04:00:08.173Z,10.35
2018-12-18T04:01:40.946Z,9.95
2018-12-18T04:03:13.241Z,11.45
2018-12-18T04:04:45.943Z,9.68
2018-12-18T04:06:16.711Z,9.88
2018-12-18T04:07:49.084Z,12.03
2018-12-18T04:09:19.836Z,10.50
2018-12-18T04:10:50.810Z,10.35
2018-12-18T04:12:23.233Z,10.70
2018-12-18T04:13:55.655Z,11.10
2018-12-18T04:15:28.261Z,10.45
2018-12-18T04:17:00.116Z,11.97
2018-12-18T04:18:32.323Z,11.75
2018-12-18T04:20:03.551Z,10.48
2018-12-18T04:21:34.240Z,12.60
2018-12-18T04:23:06.143Z,11.63
2018-12-18T04:24:38.324Z,12.50
2018-12-18T04:26:09.159Z,12.23
2018-12-18T04:27:42.621Z,11.63
2018-12-18T04:29:16.587Z,10.78
2018-12-18T04:30:49.130Z,11.65
2018-12-18T04:32:21.345Z,9.93
2018-12-18T04:33:52.134Z,11.05
2018-12-18T04:35:23.956Z,11.22
2018-12-18T04:36:56.440Z,11.15
2018-12-18T04:38:27.230Z,10.18
2018-12-18T04:40:01.665Z,10.35
2018-12-18T04:41:32.567Z,10.10
2018-12-18T04:43:04.777Z,10.25
2018-12-18T04:44:37.872Z,9.68
2018-12-18T04:46:08.383Z,9.83
2018-12-18T04:47:41.045Z,9.18
2018-12-18T04:49:12.336Z,9.85
2018-12-18T04:50:46.437Z,8.83
2018-12-18T04:52:18.488Z,8.53
2018-12-18T04:53:50.727Z,7.75
2018-12-18T04:55:21.416Z,9.50
2018-12-18T04:56:54.084Z,9.68
2018-12-18T04:58:25.755Z,7.67
2018-12-18T05:00:00.097Z,6.92
2018-12-18T05:01:32.141Z,9.00
2018-12-18T05:03:02.643Z,8.95
2018-12-18T05:04:34.931Z,9.10
2018-12-18T05:06:07.371Z,8.28
2018-12-18T05:07:39.397Z,7.83
2018-12-18T05:09:11.718Z,9.10
2018-12-18T05:10:45.284Z,7.75
2018-12-18T05:12:20.516Z,7.22
2018-12-18T05:13:55.343Z,8.33
2018-12-18T05:15:29.285Z,8.93
2018-12-18T05:17:02.818Z,7.75
2018-12-18T05:18:34.928Z,6.62
2018-12-18T05:20:09.456Z,4.75
2018-12-18T05:21:39.500Z,5.55
2018-12-18T05:23:09.399Z,5.53
2018-12-18T05:24:39.298Z,5.75
2018-12-18T05:26:09.197Z,6.47
2018-12-18T05:27:39.092Z,5.80
2018-12-18T05:29:09.160Z,5.60
2018-12-18T05:30:39.279Z,5.62
2018-12-18T05:32:09.339Z,5.78
2018-12-18T05:33:39.230Z,5.20
2018-12-18T05:35:09.139Z,5.40
2018-12-18T05:36:39.179Z,5.03
2018-12-18T05:38:09.067Z,5.00
2018-12-18T05:39:39.103Z,6.15
2018-12-18T05:41:09.218Z,5.67
2018-12-18T05:42:39.109Z,5.45
2018-12-18T05:44:09.019Z,4.85
2018-12-18T05:45:38.918Z,5.20
2018-12-18T05:47:08.918Z,6.58
2018-12-18T05:48:38.815Z,5.78
2018-12-18T05:50:08.867Z,5.33
2018-12-18T05:51:38.750Z,6.15
2018-12-18T05:53:08.631Z,7.60
2018-12-18T05:54:38.527Z,10.23
2018-12-18T05:56:08.439Z,7.30
2018-12-18T05:57:38.337Z,5.87
2018-12-18T05:59:08.343Z,5.53
2018-12-18T06:00:38.382Z,5.12
2018-12-18T06:02:08.271Z,5.65
2018-12-18T06:03:38.159Z,5.08
2018-12-18T06:05:08.063Z,4.35
2018-12-18T06:06:37.952Z,4.95
2018-12-18T06:08:07.839Z,4.42
2018-12-18T06:09:37.740Z,5.72
2018-12-18T06:11:07.755Z,5.72
2018-12-18T06:12:37.742Z,7.25
2018-12-18T06:14:07.638Z,16.77
2018-12-18T06:15:37.539Z,21.70
2018-12-18T06:17:07.431Z,42.23
2018-12-18T06:18:37.450Z,56.60
2018-12-18T06:20:07.620Z,42.17
2018-12-18T06:21:37.578Z,20.50
2018-12-18T06:23:07.459Z,8.25
2018-12-18T06:24:37.371Z,6.75
2018-12-18T06:26:07.279Z,7.78
2018-12-18T06:27:37.170Z,5.85
2018-12-18T06:29:07.300Z,13.10
2018-12-18T06:30:37.192Z,11.40
2018-12-18T06:32:07.111Z,9.63
2018-12-18T06:33:36.991Z,12.88
2018-12-18T06:35:10.298Z,11.45
2018-12-18T06:36:38.790Z,11.50
2018-12-18T06:38:08.798Z,9.50
2018-12-18T06:39:38.707Z,10.70
2018-12-18T06:41:08.607Z,8.13
2018-12-18T06:42:38.495Z,12.03
2018-12-18T06:44:08.393Z,20.57
2018-12-18T06:45:38.290Z,19.48
2018-12-18T06:47:08.177Z,19.20
2018-12-18T06:48:38.091Z,18.65
2018-12-18T06:50:08.302Z,19.52
2018-12-18T06:51:38.317Z,11.50
2018-12-18T06:53:08.419Z,9.75
2018-12-18T06:54:38.315Z,10.70
2018-12-18T06:56:08.204Z,10.85
2018-12-18T06:57:38.086Z,12.50
2018-12-18T06:59:07.971Z,18.42
2018-12-18T07:00:37.872Z,13.65
2018-12-18T07:02:07.750Z,15.95
2018-12-18T07:03:37.739Z,17.15
2018-12-18T07:05:07.760Z,16.12
2018-12-18T07:06:37.668Z,17.85
2018-12-18T07:08:07.564Z,15.28
2018-12-18T07:09:37.565Z,15.10
2018-12-18T07:11:07.575Z,14.33
2018-12-18T07:12:37.467Z,14.98
2018-12-18T07:14:07.366Z,17.75
2018-12-18T07:15:37.286Z,20.97
2018-12-18T07:17:07.171Z,21.25
2018-12-18T07:18:37.086Z,22.40
2018-12-18T07:20:07.252Z,25.77
2018-12-18T07:21:37.163Z,22.82
2018-12-18T07:23:07.142Z,17.70
2018-12-18T07:24:37.038Z,25.80
2018-12-18T07:26:06.935Z,12.80
2018-12-18T07:27:36.819Z,17.42
2018-12-18T07:29:06.708Z,12.50
2018-12-18T07:30:36.755Z,12.78
2018-12-18T07:32:06.824Z,14.28
2018-12-18T07:33:36.778Z,13.00
2018-12-18T07:35:06.878Z,10.70
2018-12-18T07:36:37.007Z,17.27
2018-12-18T07:38:07.063Z,23.25
2018-12-18T07:39:37.048Z,14.63
2018-12-18T07:41:07.151Z,16.00
2018-12-18T07:42:37.261Z,18.40
2018-12-18T07:44:19.902Z,18.12
2018-12-18T07:45:50.027Z,15.53
2018-12-18T07:47:20.164Z,17.27
2018-12-18T07:48:50.382Z,15.53
2018-12-18T07:50:20.617Z,15.05
2018-12-18T07:51:50.629Z,14.78
2018-12-18T07:53:20.651Z,15.70
2018-12-18T07:54:50.659Z,15.15
2018-12-18T07:56:20.658Z,14.40
2018-12-18T07:57:50.629Z,13.20
2018-12-18T07:59:20.559Z,13.15
2018-12-18T08:00:50.728Z,12.95
2018-12-18T08:02:20.683Z,13.00
2018-12-18T08:03:50.655Z,11.73
2018-12-18T08:05:20.867Z,11.97
2018-12-18T08:06:50.803Z,11.45
2018-12-18T08:08:20.841Z,15.30
2018-12-18T08:09:51.011Z,13.90
2018-12-18T08:11:21.009Z,12.85
2018-12-18T08:12:54.666Z,12.40
2018-12-18T08:14:24.579Z,13.75
2018-12-18T08:15:54.534Z,18.40
2018-12-18T08:17:24.497Z,18.00
2018-12-18T08:18:54.493Z,15.68
2018-12-18T08:20:24.473Z,18.05
2018-12-18T08:21:54.412Z,17.73
2018-12-18T08:23:24.413Z,17.00
2018-12-18T08:24:54.428Z,13.78
2018-12-18T08:26:24.411Z,14.40
2018-12-18T08:33:35.744Z,15.18
2018-12-18T08:35:05.728Z,18.48
2018-12-18T08:36:35.656Z,17.40
2018-12-18T08:38:05.658Z,21.93
2018-12-18T08:39:35.597Z,28.87
2018-12-18T08:41:05.683Z,32.38
2018-12-18T08:42:35.591Z,27.60
2018-12-18T08:44:05.507Z,31.50
2018-12-18T08:45:35.500Z,27.02
2018-12-18T08:47:05.588Z,28.50
2018-12-18T08:48:35.614Z,27.70
2018-12-18T08:50:09.334Z,28.95
2018-12-18T08:51:39.338Z,29.60
2018-12-18T08:53:09.367Z,41.60
2018-12-18T08:54:39.318Z,40.65
2018-12-18T08:56:09.267Z,40.92
2018-12-18T08:57:39.232Z,47.58
2018-12-18T08:59:09.403Z,48.85
2018-12-18T09:00:39.455Z,46.90
2018-12-18T09:02:09.436Z,42.60
2018-12-18T09:03:39.432Z,34.98
2018-12-18T09:05:09.576Z,32.03
2018-12-18T09:06:39.648Z,32.93
2018-12-18T09:08:09.589Z,34.70
2018-12-18T09:09:39.556Z,28.80
2018-12-18T09:11:09.666Z,20.48
2018-12-18T09:12:39.656Z,17.42
2018-12-18T09:14:09.627Z,24.15
2018-12-18T09:15:45.531Z,21.97
2018-12-18T09:17:20.150Z,38.35
2018-12-18T09:18:50.263Z,36.03
2018-12-18T09:20:26.055Z,39.30
2018-12-18T09:21:55.979Z,37.63
2018-12-18T09:23:25.978Z,42.58
2018-12-18T09:24:55.984Z,38.45
2018-12-18T09:26:25.989Z,27.05
2018-12-18T09:27:55.919Z,8.65
2018-12-18T09:29:25.897Z,5.78
2018-12-18T09:30:55.896Z,5.72
2018-12-18T09:32:25.887Z,5.35
2018-12-18T09:33:55.888Z,6.08
2018-12-18T09:35:25.897Z,19.40
2018-12-18T09:36:56.032Z,40.43
2018-12-18T09:38:31.704Z,21.30
2018-12-18T09:40:01.936Z,12.55
2018-12-18T09:41:38.907Z,9.13
2018-12-18T09:43:14.660Z,5.17
2018-12-18T09:44:44.665Z,3.50
2018-12-18T09:46:14.762Z,4.20
2018-12-18T09:47:44.994Z,3.40
2018-12-18T09:49:15.057Z,3.62
2018-12-18T09:50:45.132Z,3.70
2018-12-18T09:53:51.943Z,3.77
2018-12-18T09:55:21.951Z,3.95
2018-12-18T09:56:51.931Z,3.70
2018-12-18T09:58:21.944Z,4.00
2018-12-18T09:59:51.898Z,3.62
2018-12-18T10:01:21.883Z,3.72
2018-12-18T10:02:51.991Z,2.92
2018-12-18T10:04:21.954Z,3.08
2018-12-18T10:05:56.334Z,3.85
2018-12-18T10:07:23.964Z,3.15
2018-12-18T10:08:53.956Z,3.58
2018-12-18T10:12:56.899Z,4.35
2018-12-18T10:14:27.105Z,2.80
2018-12-18T10:15:57.228Z,2.65
2018-12-18T10:17:27.172Z,3.50
2018-12-18T10:18:57.116Z,3.10
2018-12-18T10:20:27.060Z,3.45
2018-12-18T10:21:57.055Z,3.30
2018-12-18T10:23:27.337Z,3.62
2018-12-18T10:24:57.589Z,4.87
2018-12-18T10:26:27.787Z,5.22
2018-12-18T10:27:57.906Z,3.50
2018-12-18T10:29:27.898Z,4.50
2018-12-18T10:30:57.865Z,3.87
2018-12-18T10:32:27.843Z,3.25
2018-12-18T10:33:57.819Z,3.17
2018-12-18T10:35:27.991Z,3.33
2018-12-18T10:36:58.072Z,3.10
2018-12-18T10:38:28.204Z,3.17
2018-12-18T10:39:58.260Z,3.87
2018-12-18T10:41:28.252Z,3.05
2018-12-18T10:42:58.248Z,2.92
2018-12-18T10:44:28.261Z,2.95
2018-12-18T10:45:58.253Z,3.58
2018-12-18T10:47:28.510Z,3.60
2018-12-18T10:48:58.740Z,4.17
2018-12-18T10:50:28.784Z,5.33
2018-12-18T10:51:58.907Z,4.28
2018-12-18T10:53:29.177Z,4.35
2018-12-18T10:54:59.194Z,5.28
2018-12-18T10:56:29.194Z,4.85
2018-12-18T10:57:59.423Z,4.70
2018-12-18T10:59:29.563Z,3.80
2018-12-18T11:01:05.554Z,3.22
2018-12-18T11:02:35.810Z,3.40
2018-12-18T11:04:05.969Z,3.75
2018-12-18T11:05:36.316Z,4.58
2018-12-18T11:07:06.268Z,4.22
2018-12-18T11:08:36.901Z,4.03
2018-12-18T11:10:07.567Z,5.55
2018-12-18T11:11:38.017Z,5.47
2018-12-18T11:13:14.065Z,5.28
2018-12-18T11:14:44.446Z,5.55
2018-12-18T11:16:14.442Z,5.15
2018-12-18T11:18:03.553Z,5.62
2018-12-18T11:19:33.536Z,5.95
2018-12-18T11:21:03.499Z,7.12
2018-12-18T11:22:33.396Z,6.92
2018-12-18T11:24:03.600Z,7.92
2018-12-18T11:25:33.751Z,8.40
2018-12-18T11:27:03.753Z,9.03
2018-12-18T11:28:33.769Z,8.98
2018-12-18T11:30:04.489Z,8.98
2018-12-18T11:31:34.571Z,10.18
2018-12-18T11:33:19.163Z,10.05
2018-12-18T11:34:49.183Z,9.70
2018-12-18T11:36:19.103Z,9.55
2018-12-18T11:37:49.058Z,9.20
2018-12-18T11:39:18.970Z,10.13
2018-12-18T11:40:48.884Z,9.98
2018-12-18T11:42:18.919Z,9.68
2018-12-18T11:43:48.963Z,10.95
2018-12-18T11:45:18.892Z,11.00
2018-12-18T11:46:48.794Z,11.12
2018-12-18T11:48:18.955Z,10.13
2018-12-18T11:49:49.020Z,10.48
2018-12-18T11:51:19.021Z,9.98
2018-12-18T11:52:48.976Z,11.20
2018-12-18T11:54:18.930Z,10.53
2018-12-18T11:55:50.166Z,10.32
2018-12-18T11:57:20.226Z,10.08
2018-12-18T11:58:50.170Z,10.50
2018-12-18T12:00:20.459Z,9.80
2018-12-18T12:01:51.193Z,12.37
2018-12-18T12:03:21.283Z,9.78
2018-12-18T12:04:51.204Z,10.40
2018-12-18T12:06:23.191Z,9.50
2018-12-18T12:07:53.201Z,9.58
2018-12-18T12:09:23.221Z,9.50
2018-12-18T12:10:53.646Z,8.30
2018-12-18T12:12:23.637Z,9.15
2018-12-18T12:13:53.547Z,9.48
2018-12-18T12:15:23.512Z,8.40
2018-12-18T12:16:53.452Z,8.58
2018-12-18T12:18:23.420Z,8.00
2018-12-18T12:19:53.577Z,9.13
2018-12-18T12:21:23.526Z,7.75
2018-12-18T12:22:53.592Z,7.53
2018-12-18T12:24:23.596Z,7.60
2018-12-18T12:25:53.531Z,7.55
2018-12-18T12:27:29.263Z,8.45
2018-12-18T12:28:59.451Z,6.45
2018-12-18T12:30:29.542Z,5.80
2018-12-18T12:31:59.515Z,4.12
2018-12-18T12:33:29.551Z,5.03
2018-12-18T12:34:59.592Z,10.75
2018-12-18T12:36:30.029Z,4.92
2018-12-18T12:38:00.171Z,4.45
2018-12-18T12:39:36.827Z,4.00
2018-12-18T12:41:06.808Z,3.85
2018-12-18T12:42:36.768Z,5.05
2018-12-18T12:44:07.297Z,4.22
2018-12-18T12:45:37.385Z,4.40
2018-12-18T12:47:07.504Z,4.50
2018-12-18T12:48:43.362Z,4.90
2018-12-18T12:50:13.444Z,5.30
2018-12-18T12:51:43.807Z,5.83
2018-12-18T12:53:14.196Z,5.70
2018-12-18T12:54:44.573Z,6.28
2018-12-18T12:56:15.455Z,6.72
2018-12-18T12:57:46.093Z,6.33
2018-12-18T12:59:16.480Z,6.05
2018-12-18T13:00:46.511Z,8.65
2018-12-18T13:02:16.820Z,7.92
2018-12-18T13:03:47.545Z,7.95
2018-12-18T13:05:18.780Z,8.80
2018-12-18T13:06:49.128Z,8.53
2018-12-18T13:08:19.960Z,8.48
2018-12-18T13:09:50.088Z,7.45
2018-12-18T13:11:28.503Z,7.50
2018-12-18T13:12:58.460Z,8.28
2018-12-18T13:14:28.410Z,7.50
2018-12-18T13:15:58.337Z,6.97
2018-12-18T13:17:28.325Z,8.15
2018-12-18T13:18:58.290Z,8.33
2018-12-18T13:20:29.288Z,8.08
2018-12-18T13:21:59.239Z,8.50
2018-12-18T13:23:29.205Z,8.18
2018-12-18T13:24:59.408Z,7.12
2018-12-18T13:26:29.531Z,8.28
2018-12-18T13:27:59.472Z,10.58
2018-12-18T13:29:29.730Z,8.53
2018-12-18T13:32:36.624Z,9.10
2018-12-18T13:34:07.331Z,8.28
2018-12-18T13:35:37.318Z,9.05
2018-12-18T13:37:07.228Z,9.55
2018-12-18T13:38:37.239Z,9.05
2018-12-18T13:40:07.434Z,9.13
2018-12-18T13:41:37.353Z,9.78
2018-12-18T13:43:08.781Z,10.28
2018-12-18T13:44:40.114Z,10.53
2018-12-18T13:46:14.950Z,11.38
2018-12-18T13:47:43.928Z,11.88
2018-12-18T13:49:35.359Z,12.40
2018-12-18T13:51:06.735Z,13.43
2018-12-18T13:52:37.138Z,13.18
2018-12-18T13:54:07.933Z,13.32
2018-12-18T13:55:38.994Z,13.53
2018-12-18T13:57:10.261Z,13.10
2018-12-18T13:58:40.244Z,13.75
2018-12-18T14:00:10.319Z,13.83
2018-12-18T14:01:40.461Z,14.63
2018-12-18T14:03:10.551Z,13.80
2018-12-18T14:04:40.484Z,13.70
2018-12-18T14:06:10.442Z,15.05
2018-12-18T14:07:40.387Z,14.25
2018-12-18T14:09:10.284Z,15.00
2018-12-18T14:10:40.353Z,14.43
2018-12-18T14:12:10.297Z,14.53
2018-12-18T14:13:40.235Z,13.85
2018-12-18T14:15:10.750Z,14.65
2018-12-18T14:16:41.088Z,16.00
2018-12-18T14:18:17.300Z,14.93
2018-12-18T14:19:47.308Z,16.85
2018-12-18T14:21:17.279Z,15.75
2018-12-18T14:22:47.544Z,17.17
2018-12-18T14:24:18.018Z,16.85
2018-12-18T14:25:48.225Z,17.10
2018-12-18T14:27:18.152Z,15.78
2018-12-18T14:28:48.068Z,15.83
2018-12-18T14:30:18.180Z,17.17
2018-12-18T14:31:48.510Z,16.52
2018-12-18T14:33:24.863Z,17.10
2018-12-18T14:34:54.816Z,16.57
2018-12-18T14:36:24.892Z,17.07
2018-12-18T14:37:55.311Z,17.25
2018-12-18T14:39:25.294Z,17.07
2018-12-18T14:40:55.295Z,16.45
2018-12-18T14:42:25.283Z,22.87
2018-12-18T14:43:55.205Z,21.05
2018-12-18T14:45:25.430Z,20.77
2018-12-18T14:46:55.539Z,19.10
2018-12-18T14:48:27.317Z,18.60
2018-12-18T14:51:52.962Z,20.08
2018-12-18T14:53:22.891Z,19.65
2018-12-18T14:54:52.801Z,19.90
2018-12-18T14:56:22.738Z,20.90
2018-12-18T14:57:52.772Z,24.02
2018-12-18T14:59:23.034Z,22.65
2018-12-18T15:00:52.983Z,23.07
2018-12-18T15:02:23.046Z,21.70
2018-12-18T15:03:52.986Z,23.95
2018-12-18T15:05:22.952Z,21.35
2018-12-18T15:06:52.848Z,21.48
2018-12-18T15:08:22.762Z,22.35
2018-12-18T15:09:52.688Z,22.55
2018-12-18T15:11:26.692Z,19.73
2018-12-18T15:12:56.613Z,23.98
2018-12-18T15:14:26.535Z,31.12
2018-12-18T15:15:56.584Z,24.57
2018-12-18T15:17:26.515Z,32.23
2018-12-18T15:18:56.431Z,22.62
2018-12-18T15:20:26.409Z,35.25
2018-12-18T15:21:56.377Z,25.80
2018-12-18T15:23:26.480Z,25.57
2018-12-18T15:24:56.456Z,21.65
2018-12-18T15:26:26.383Z,24.70
2018-12-18T15:27:56.319Z,23.12
2018-12-18T15:29:26.382Z,33.38
2018-12-18T15:30:56.765Z,25.90
2018-12-18T15:32:26.986Z,25.90
2018-12-18T15:33:56.939Z,24.60
2018-12-18T15:35:27.428Z,39.98
2018-12-18T15:36:57.391Z,33.45
2018-12-18T15:38:27.356Z,41.33
2018-12-18T15:39:57.356Z,48.30
2018-12-18T15:41:27.288Z,33.58
2018-12-18T15:42:57.212Z,26.97
2018-12-18T15:44:27.144Z,45.78
2018-12-18T15:45:57.124Z,41.28
2018-12-18T15:47:27.028Z,34.18
2018-12-18T15:48:57.019Z,38.60
2018-12-18T15:50:27.271Z,31.97
2018-12-18T15:51:57.311Z,25.88
2018-12-18T15:53:27.291Z,39.35
2018-12-18T15:54:57.195Z,23.80
2018-12-18T15:56:27.300Z,33.92
2018-12-18T15:57:57.195Z,66.90
2018-12-18T15:59:27.070Z,42.62
2018-12-18T16:00:56.988Z,69.27
2018-12-18T16:02:26.969Z,67.85
2018-12-18T16:03:56.874Z,43.52
2018-12-18T16:05:26.812Z,33.73
2018-12-18T16:06:56.848Z,25.92
2018-12-18T16:08:26.731Z,25.20
2018-12-18T16:09:56.617Z,24.90
2018-12-18T16:11:26.523Z,25.97
2018-12-18T16:12:56.420Z,27.15
2018-12-18T16:14:26.433Z,22.90
2018-12-18T16:15:56.355Z,24.25
2018-12-18T16:17:26.388Z,26.62
2018-12-18T16:18:56.336Z,33.20
2018-12-18T16:20:33.032Z,56.33
2018-12-18T16:22:03.403Z,54.67
2018-12-18T16:23:33.303Z,36.28
2018-12-18T16:25:03.802Z,41.15
2018-12-18T16:26:33.723Z,25.02
2018-12-18T16:28:03.792Z,18.12
2018-12-18T16:29:33.731Z,17.60
2018-12-18T16:31:03.803Z,34.75
2018-12-18T16:32:33.730Z,21.77
2018-12-18T16:34:03.923Z,18.77
2018-12-18T16:35:33.826Z,20.02
2018-12-18T16:37:03.888Z,20.12
2018-12-18T16:38:33.777Z,16.70
2018-12-18T16:40:03.899Z,18.62
2018-12-18T16:41:33.831Z,17.73
2018-12-18T16:43:03.801Z,17.10
2018-12-18T16:44:33.756Z,16.17
2018-12-18T16:46:03.912Z,19.73
2018-12-18T16:47:33.842Z,21.80
2018-12-18T16:49:04.021Z,19.32
2018-12-18T16:50:34.827Z,35.30
2018-12-18T16:52:05.275Z,27.62
2018-12-18T16:53:35.374Z,19.62
2018-12-18T16:55:05.847Z,16.73
2018-12-18T16:56:36.000Z,20.92
2018-12-18T16:58:06.014Z,18.67
2018-12-18T16:59:36.097Z,22.87
2018-12-18T17:01:06.003Z,23.92
2018-12-18T17:02:36.196Z,22.60
2018-12-18T17:04:06.087Z,21.62
2018-12-18T17:05:35.992Z,23.90
2018-12-18T17:07:05.936Z,22.45
2018-12-18T17:08:35.882Z,23.70
2018-12-18T17:10:09.118Z,35.15
2018-12-18T17:11:39.020Z,32.00
2018-12-18T17:13:08.983Z,27.02
2018-12-18T17:14:39.014Z,32.98
2018-12-18T17:16:08.970Z,43.95
2018-12-18T17:17:38.967Z,38.73
2018-12-18T17:19:09.018Z,38.67
2018-12-18T17:20:39.124Z,41.80
2018-12-18T17:22:09.263Z,33.38
2018-12-18T17:23:39.361Z,30.00
2018-12-18T17:25:09.303Z,23.57
2018-12-18T17:26:39.232Z,24.30
2018-12-18T17:28:09.354Z,25.97
2018-12-18T17:29:39.272Z,24.67
2018-12-18T17:31:09.275Z,28.38
2018-12-18T17:32:39.264Z,28.07
2018-12-18T17:34:09.248Z,44.45
2018-12-18T17:35:40.456Z,48.28
2018-12-18T17:37:10.415Z,41.88
2018-12-18T17:38:50.855Z,41.98
2018-12-18T17:40:21.272Z,33.23
2018-12-18T17:41:51.268Z,50.17
2018-12-18T17:43:21.735Z,60.15
2018-12-18T17:44:51.759Z,45.55
2018-12-18T17:46:21.708Z,38.40
2018-12-18T17:47:51.817Z,41.42
2018-12-18T17:49:21.760Z,33.25
2018-12-18T17:50:51.719Z,49.48
2018-12-18T17:52:21.731Z,59.80
2018-12-18T17:53:51.822Z,29.55
2018-12-18T17:55:21.797Z,28.12
2018-12-18T17:56:51.812Z,39.55
2018-12-18T17:58:21.856Z,23.30
2018-12-18T17:59:51.857Z,20.55
2018-12-18T18:01:21.927Z,18.75
2018-12-18T18:02:52.012Z,17.85
2018-12-18T18:04:21.984Z,28.50
2018-12-18T18:05:53.944Z,24.80
2018-12-18T18:07:23.963Z,19.60
2018-12-18T18:08:54.037Z,26.12
2018-12-18T18:10:24.058Z,29.25
2018-12-18T18:11:54.153Z,39.27
2018-12-18T18:13:24.213Z,43.10
2018-12-18T18:14:54.219Z,47.48
2018-12-18T18:16:24.237Z,33.70
2018-12-18T18:17:54.372Z,28.87
2018-12-18T18:19:24.358Z,25.40
2018-12-18T18:20:54.422Z,21.80
2018-12-18T18:22:24.486Z,27.10
2018-12-18T18:24:07.873Z,27.87
2018-12-18T18:25:37.813Z,22.17
2018-12-18T18:27:08.016Z,29.95
2018-12-18T18:28:38.243Z,33.53
2018-12-18T18:30:08.581Z,30.05
2018-12-18T18:31:39.544Z,29.12
2018-12-18T18:33:09.622Z,17.65
2018-12-18T18:34:39.658Z,15.53
2018-12-18T18:36:09.620Z,13.90
2018-12-18T18:37:39.680Z,21.93
2018-12-18T18:39:09.663Z,26.45
2018-12-18T18:40:39.777Z,26.23
2018-12-18T18:42:09.988Z,32.25
2018-12-18T18:43:40.156Z,31.80
2018-12-18T18:45:13.019Z,27.58
2018-12-18T18:46:43.377Z,32.45
2018-12-18T18:48:13.413Z,31.85
2018-12-18T18:49:43.504Z,23.80
2018-12-18T18:51:13.501Z,25.95
2018-12-18T18:52:43.533Z,21.80
2018-12-18T18:54:13.524Z,20.32
2018-12-18T18:55:43.663Z,23.67
2018-12-18T18:57:13.927Z,24.10
2018-12-18T18:58:43.904Z,24.15
2018-12-18T19:00:13.965Z,22.05
2018-12-18T19:01:44.048Z,28.67
2018-12-18T19:03:14.241Z,27.37
2018-12-18T19:04:44.395Z,27.37
2018-12-18T19:06:14.420Z,27.25
2018-12-18T19:07:44.533Z,26.97
2018-12-18T19:09:14.574Z,22.65
2018-12-18T19:10:44.622Z,20.62
2018-12-18T19:12:14.689Z,18.10
2018-12-18T19:13:45.023Z,17.73
2018-12-18T19:15:15.008Z,20.00
2018-12-18T19:16:44.975Z,18.00
2018-12-18T19:18:14.966Z,22.37
2018-12-18T19:19:45.034Z,28.42
2018-12-18T19:21:15.226Z,22.55
2018-12-18T19:22:45.412Z,17.10
2018-12-18T19:24:15.423Z,14.90
2018-12-18T19:25:45.658Z,15.53
2018-12-18T19:27:15.695Z,14.73
2018-12-18T19:28:50.174Z,14.55
2018-12-18T19:30:19.563Z,15.30
2018-12-18T19:31:49.523Z,14.45
2018-12-18T19:33:19.677Z,12.85
2018-12-18T19:34:49.771Z,15.13
2018-12-18T19:36:19.817Z,14.28
2018-12-18T19:37:49.904Z,12.55
2018-12-18T19:39:21.229Z,15.65
2018-12-18T19:40:51.358Z,14.83
2018-12-18T19:42:23.462Z,12.07
2018-12-18T19:43:54.398Z,11.73
2018-12-18T19:45:24.383Z,12.43
2018-12-18T19:46:54.336Z,10.58
2018-12-18T19:48:24.582Z,10.50
2018-12-18T19:49:54.528Z,11.12
2018-12-18T19:51:24.519Z,11.00
2018-12-18T19:52:54.571Z,11.22
2018-12-18T19:54:24.593Z,14.53
2018-12-18T19:55:54.543Z,16.35
2018-12-18T19:57:24.548Z,14.87
2018-12-18T19:58:54.611Z,11.88